createdAt,value
2019-03-18T00:01:18.781Z,126.22
2019-03-18T00:03:45.938Z,127.53
2019-03-18T00:06:13.066Z,126.87
2019-03-18T00:08:40.587Z,127.20
2019-03-18T00:11:07.698Z,129.32
2019-03-18T00:13:34.801Z,127.17
2019-03-18T00:16:01.844Z,127.40
2019-03-18T00:18:29.479Z,127.58
2019-03-18T00:20:56.571Z,128.78
2019-03-18T00:23:23.643Z,128.38
2019-03-18T00:25:50.682Z,129.23
2019-03-18T00:28:18.128Z,128.60
2019-03-18T00:30:45.158Z,129.07
2019-03-18T00:33:12.230Z,128.85
2019-03-18T00:35:39.633Z,127.65
2019-03-18T00:38:06.688Z,127.92
2019-03-18T00:40:33.754Z,128.87
2019-03-18T00:43:01.471Z,129.40
2019-03-18T00:45:28.615Z,129.47
2019-03-18T00:47:55.665Z,128.30
2019-03-18T00:50:22.754Z,128.18
2019-03-18T00:52:49.831Z,128.93
2019-03-18T00:55:16.969Z,128.20
2019-03-18T00:57:45.076Z,127.47
2019-03-18T01:00:12.741Z,128.00
2019-03-18T01:02:39.799Z,127.62
2019-03-18T01:05:07.383Z,127.05
2019-03-18T01:07:34.533Z,127.30
2019-03-18T01:10:01.576Z,127.22
2019-03-18T01:12:29.202Z,127.32
2019-03-18T01:14:56.268Z,127.80
2019-03-18T01:17:23.309Z,128.50
2019-03-18T01:19:50.679Z,127.70
2019-03-18T01:22:17.736Z,128.10
2019-03-18T01:24:44.816Z,128.12
2019-03-18T01:27:11.923Z,126.70
2019-03-18T01:29:38.996Z,128.20
2019-03-18T01:32:06.013Z,126.60
2019-03-18T01:34:33.109Z,127.78
2019-03-18T01:37:00.160Z,128.62
2019-03-18T01:39:27.189Z,129.55
2019-03-18T01:41:54.352Z,127.82
2019-03-18T01:44:21.413Z,128.73
2019-03-18T01:46:48.939Z,127.60
2019-03-18T01:49:15.962Z,128.75
2019-03-18T01:51:42.992Z,127.97
2019-03-18T01:54:10.015Z,127.65
2019-03-18T01:56:37.126Z,128.97
2019-03-18T01:59:04.196Z,128.23
2019-03-18T02:01:31.225Z,128.50
2019-03-18T02:03:58.330Z,129.47
2019-03-18T02:06:25.372Z,128.90
2019-03-18T02:08:52.409Z,130.22
2019-03-18T02:11:19.460Z,129.50
2019-03-18T02:13:47.621Z,129.17
2019-03-18T02:16:14.632Z,129.87
2019-03-18T02:18:41.748Z,130.03
2019-03-18T02:21:08.749Z,129.10
2019-03-18T02:23:36.107Z,130.18
2019-03-18T02:26:03.173Z,130.00
2019-03-18T02:28:31.519Z,129.42
2019-03-18T02:30:58.558Z,130.25
2019-03-18T02:33:26.878Z,130.52
2019-03-18T02:35:54.282Z,132.67
2019-03-18T02:38:22.828Z,130.60
2019-03-18T02:40:49.914Z,128.62
2019-03-18T02:43:18.030Z,128.62
2019-03-18T02:45:45.077Z,129.18
2019-03-18T02:48:12.189Z,130.22
2019-03-18T02:50:39.784Z,128.85
2019-03-18T02:53:07.926Z,129.60
2019-03-18T02:55:35.001Z,128.60
2019-03-18T02:58:02.092Z,129.00
2019-03-18T03:00:29.283Z,129.65
2019-03-18T03:02:56.368Z,128.72
2019-03-18T03:05:23.835Z,129.47
2019-03-18T03:07:50.863Z,131.22
2019-03-18T03:10:17.899Z,129.27
2019-03-18T03:12:46.004Z,129.72
2019-03-18T03:15:13.335Z,130.35
2019-03-18T03:17:40.412Z,130.35
2019-03-18T03:20:08.059Z,129.07
2019-03-18T03:22:35.115Z,129.90
2019-03-18T03:25:02.254Z,129.03
2019-03-18T03:27:36.954Z,128.65
2019-03-18T03:30:04.815Z,129.00
2019-03-18T03:32:31.905Z,129.10
2019-03-18T03:34:59.602Z,128.82
2019-03-18T03:37:26.615Z,128.70
2019-03-18T03:39:53.638Z,130.85
2019-03-18T03:42:21.805Z,129.13
2019-03-18T03:44:48.911Z,130.32
2019-03-18T03:47:17.117Z,130.43
2019-03-18T03:49:44.557Z,129.03
2019-03-18T03:52:11.620Z,130.27
2019-03-18T03:54:38.761Z,130.07
2019-03-18T03:57:06.951Z,129.03
2019-03-18T03:59:34.074Z,130.65
2019-03-18T04:02:02.349Z,130.45
2019-03-18T04:04:29.485Z,130.07
2019-03-18T04:06:57.151Z,130.10
2019-03-18T04:09:24.409Z,130.30
2019-03-18T04:11:51.414Z,130.40
2019-03-18T04:14:18.912Z,129.78
2019-03-18T04:17:00.903Z,129.70
2019-03-18T04:19:14.885Z,129.47
2019-03-18T04:21:42.282Z,131.05
2019-03-18T04:24:44.480Z,130.07
2019-03-18T04:27:13.069Z,130.03
2019-03-18T04:29:40.106Z,130.65
2019-03-18T04:32:07.558Z,131.20
2019-03-18T04:34:34.654Z,131.25
2019-03-18T04:37:02.762Z,129.55
2019-03-18T04:39:30.823Z,130.97
2019-03-18T04:41:57.992Z,130.50
2019-03-18T04:44:25.732Z,132.52
2019-03-18T04:46:53.085Z,131.20
2019-03-18T04:49:20.182Z,131.47
2019-03-18T04:51:47.541Z,132.00
2019-03-18T04:54:14.703Z,131.75
2019-03-18T04:56:41.755Z,131.85
2019-03-18T04:59:09.269Z,130.85
2019-03-18T05:01:36.403Z,131.72
2019-03-18T05:04:03.496Z,132.07
2019-03-18T05:06:31.608Z,131.93
2019-03-18T05:08:59.049Z,131.57
2019-03-18T05:11:27.897Z,131.75
2019-03-18T05:13:55.266Z,132.30
2019-03-18T05:16:23.600Z,133.05
2019-03-18T05:18:52.470Z,132.85
2019-03-18T05:21:20.728Z,134.30
2019-03-18T05:23:48.206Z,133.05
2019-03-18T05:26:15.313Z,133.22
2019-03-18T05:28:42.376Z,133.75
2019-03-18T05:31:09.733Z,134.10
2019-03-18T05:33:36.801Z,132.82
2019-03-18T05:36:03.832Z,133.80
2019-03-18T05:38:31.224Z,133.67
2019-03-18T05:40:58.567Z,133.70
2019-03-18T05:43:25.614Z,133.32
2019-03-18T05:45:52.655Z,134.27
2019-03-18T05:48:20.113Z,134.97
2019-03-18T05:50:48.307Z,135.48
2019-03-18T05:53:15.332Z,133.00
2019-03-18T05:55:42.713Z,133.87
2019-03-18T05:58:09.732Z,132.65
2019-03-18T06:00:36.747Z,133.52
2019-03-18T06:07:36.633Z,131.27
2019-03-18T06:10:04.845Z,134.07
2019-03-18T06:12:31.904Z,134.03
2019-03-18T06:15:00.463Z,136.50
2019-03-18T06:17:28.208Z,136.37
2019-03-18T06:19:55.325Z,136.40
2019-03-18T06:22:22.476Z,135.45
2019-03-18T06:24:50.082Z,136.03
2019-03-18T06:27:19.114Z,135.63
2019-03-18T06:29:46.214Z,133.22
2019-03-18T06:32:13.842Z,135.45
2019-03-18T06:34:40.924Z,134.82
2019-03-18T06:37:08.180Z,135.18
2019-03-18T06:39:35.707Z,135.05
2019-03-18T06:42:02.786Z,136.47
2019-03-18T06:44:29.996Z,139.43
2019-03-18T06:46:57.098Z,136.03
2019-03-18T06:49:26.598Z,135.48
2019-03-18T06:51:53.751Z,135.90
2019-03-18T06:54:21.282Z,137.40
2019-03-18T06:56:51.713Z,133.93
2019-03-18T06:59:18.732Z,136.32
2019-03-18T07:01:45.798Z,135.30
2019-03-18T07:04:12.868Z,133.18
2019-03-18T07:06:43.202Z,134.52
2019-03-18T07:09:13.666Z,134.87
2019-03-18T07:11:40.726Z,137.28
2019-03-18T07:14:09.213Z,134.57
2019-03-18T07:16:37.498Z,134.60
2019-03-18T07:19:15.438Z,135.25
2019-03-18T07:21:42.621Z,134.50
2019-03-18T07:24:11.452Z,133.82
2019-03-18T07:26:38.477Z,133.35
2019-03-18T07:29:08.975Z,135.95
2019-03-18T07:31:51.089Z,134.70
2019-03-18T07:34:19.392Z,134.15
2019-03-18T07:36:46.450Z,132.55
2019-03-18T07:39:13.485Z,132.32
2019-03-18T07:41:40.537Z,133.82
2019-03-18T07:44:08.103Z,133.57
2019-03-18T07:46:35.233Z,134.40
2019-03-18T07:49:02.357Z,133.22
2019-03-18T07:51:29.838Z,133.75
2019-03-18T07:53:56.834Z,134.18
2019-03-18T07:56:23.888Z,132.52
2019-03-18T07:58:50.936Z,133.90
2019-03-18T08:01:17.983Z,133.85
2019-03-18T08:03:45.092Z,132.05
2019-03-18T08:06:13.301Z,133.75
2019-03-18T08:08:40.429Z,134.90
2019-03-18T08:11:07.464Z,133.52
2019-03-18T08:13:34.563Z,132.82
2019-03-18T08:16:01.966Z,135.48
2019-03-18T08:18:29.381Z,135.20
2019-03-18T08:20:57.636Z,137.52
2019-03-18T08:23:24.703Z,133.18
2019-03-18T08:25:52.737Z,133.37
2019-03-18T08:28:19.768Z,133.87
2019-03-18T08:30:46.830Z,132.80
2019-03-18T08:33:14.043Z,132.30
2019-03-18T08:35:41.081Z,132.72
2019-03-18T08:38:08.117Z,131.85
2019-03-18T08:40:35.330Z,131.78
2019-03-18T08:43:02.712Z,131.87
2019-03-18T08:45:29.819Z,131.32
2019-03-18T08:47:58.779Z,132.57
2019-03-18T08:50:25.830Z,132.95
2019-03-18T08:52:53.265Z,133.37
2019-03-18T08:55:20.763Z,131.95
2019-03-18T08:57:47.809Z,132.82
2019-03-18T09:00:15.793Z,134.67
2019-03-18T09:02:43.109Z,133.82
2019-03-18T09:05:10.846Z,134.05
2019-03-18T09:07:37.875Z,133.03
2019-03-18T09:10:06.298Z,134.60
2019-03-18T09:12:33.374Z,134.20
2019-03-18T09:15:00.407Z,133.80
2019-03-18T09:17:27.515Z,132.15
2019-03-18T09:19:54.584Z,133.80
2019-03-18T09:22:21.630Z,133.15
2019-03-18T09:24:49.201Z,133.00
2019-03-18T09:27:16.255Z,132.45
2019-03-18T09:29:43.395Z,131.75
2019-03-18T09:32:10.882Z,133.70
2019-03-18T09:34:37.924Z,132.50
2019-03-18T09:37:15.473Z,132.87
2019-03-18T09:39:43.031Z,133.03
2019-03-18T09:42:10.175Z,133.27
2019-03-18T09:44:37.548Z,134.07
2019-03-18T09:47:04.616Z,134.00
2019-03-18T09:49:31.839Z,132.32
2019-03-18T09:51:59.297Z,133.85
2019-03-18T09:54:28.753Z,131.10
2019-03-18T09:56:55.837Z,132.72
2019-03-18T09:59:23.660Z,131.80
2019-03-18T10:01:51.057Z,132.63
2019-03-18T10:04:18.087Z,133.30
2019-03-18T10:06:48.398Z,133.47
2019-03-18T10:09:15.668Z,133.05
2019-03-18T10:11:42.758Z,131.60
2019-03-18T10:14:10.138Z,132.32
2019-03-18T10:16:38.440Z,131.60
2019-03-18T10:19:05.565Z,131.47
2019-03-18T10:21:33.036Z,133.43
2019-03-18T10:24:00.082Z,133.50
2019-03-18T10:26:28.815Z,135.95
2019-03-18T10:28:55.969Z,132.93
2019-03-18T10:31:23.939Z,133.25
2019-03-18T10:33:51.024Z,132.93
2019-03-18T10:36:23.148Z,132.30
2019-03-18T10:38:52.749Z,130.97
2019-03-18T10:41:19.348Z,133.72
2019-03-18T10:43:46.586Z,130.90
2019-03-18T10:46:15.500Z,132.05
2019-03-18T10:48:42.869Z,132.27
2019-03-18T10:51:10.103Z,131.27
2019-03-18T10:53:37.241Z,132.67
2019-03-18T10:56:08.113Z,131.32
2019-03-18T10:58:33.896Z,132.30
2019-03-18T11:01:01.322Z,132.45
2019-03-18T11:03:28.355Z,134.22
2019-03-18T11:05:55.511Z,135.10
2019-03-18T11:08:24.412Z,135.80
2019-03-18T11:10:51.502Z,135.70
2019-03-18T11:13:19.089Z,135.72
2019-03-18T11:15:47.407Z,136.20
2019-03-18T11:18:14.932Z,135.22
2019-03-18T11:20:42.154Z,135.28
2019-03-18T11:23:09.492Z,135.45
2019-03-18T11:25:36.549Z,134.75
2019-03-18T11:28:03.660Z,136.52
2019-03-18T11:30:30.706Z,134.78
2019-03-18T11:32:57.857Z,134.75
2019-03-18T11:35:24.943Z,135.88
2019-03-18T11:37:52.573Z,134.97
2019-03-18T11:40:20.176Z,133.55
2019-03-18T11:42:47.277Z,132.47
2019-03-18T11:45:14.748Z,130.52
2019-03-18T11:47:43.121Z,130.07
2019-03-18T11:50:11.812Z,129.63
2019-03-18T11:52:39.122Z,132.03
2019-03-18T11:55:09.382Z,129.05
2019-03-18T11:57:36.761Z,129.20
2019-03-18T12:00:05.626Z,129.78
2019-03-18T12:02:32.759Z,130.95
2019-03-18T12:05:00.512Z,133.97
2019-03-18T12:07:27.594Z,132.75
2019-03-18T12:09:54.759Z,132.50
2019-03-18T12:12:22.150Z,133.85
2019-03-18T12:14:49.183Z,132.85
2019-03-18T12:17:16.449Z,133.67
2019-03-18T12:19:44.008Z,133.93
2019-03-18T12:22:11.076Z,135.03
2019-03-18T12:24:38.187Z,134.30
2019-03-18T12:27:05.269Z,137.10
2019-03-18T12:29:32.475Z,137.50
2019-03-18T12:32:00.280Z,136.52
2019-03-18T12:34:27.464Z,138.10
2019-03-18T12:36:54.543Z,138.25
2019-03-18T12:39:24.601Z,139.10
2019-03-18T12:41:51.047Z,139.20
2019-03-18T12:44:18.101Z,137.82
2019-03-18T12:46:45.929Z,139.47
2019-03-18T12:49:13.077Z,137.00
2019-03-18T12:51:40.255Z,136.35
2019-03-18T12:54:09.089Z,137.37
2019-03-18T12:56:36.239Z,136.95
2019-03-18T12:59:03.702Z,138.00
2019-03-18T13:01:30.858Z,137.62
2019-03-18T13:03:58.082Z,138.55
2019-03-18T13:06:27.372Z,139.00
2019-03-18T13:08:54.456Z,138.10
2019-03-18T13:11:23.977Z,138.85
2019-03-18T13:13:51.191Z,141.18
2019-03-18T13:16:18.445Z,140.62
2019-03-18T13:18:45.661Z,136.75
2019-03-18T13:21:13.074Z,138.43
2019-03-18T13:23:40.246Z,139.18
2019-03-18T13:26:07.382Z,140.32
2019-03-18T13:28:35.646Z,139.65
2019-03-18T13:31:02.803Z,139.90
2019-03-18T13:33:29.935Z,136.15
2019-03-18T13:36:00.503Z,138.25
2019-03-18T13:38:27.583Z,137.07
2019-03-18T13:40:54.740Z,139.45
2019-03-18T13:43:22.191Z,140.18
2019-03-18T13:45:55.135Z,139.20
2019-03-18T13:48:19.473Z,139.62
2019-03-18T13:50:46.651Z,137.32
2019-03-18T13:53:13.996Z,137.72
2019-03-18T13:55:41.094Z,137.60
2019-03-18T13:58:08.259Z,137.70
2019-03-18T14:00:41.790Z,137.57
2019-03-18T14:06:45.851Z,136.68
2019-03-18T14:09:12.951Z,136.28
2019-03-18T14:11:40.046Z,136.10
2019-03-18T14:14:07.315Z,134.60
2019-03-18T14:16:35.495Z,134.57
2019-03-18T14:19:02.936Z,134.52
2019-03-18T14:21:33.557Z,134.00
2019-03-18T14:24:01.042Z,135.35
2019-03-18T14:26:28.149Z,133.87
2019-03-18T14:28:55.239Z,134.20
2019-03-18T14:31:22.311Z,135.78
2019-03-18T14:33:49.367Z,134.52
2019-03-18T14:36:16.446Z,136.30
2019-03-18T14:38:52.205Z,136.77
2019-03-18T14:41:19.901Z,133.67
2019-03-18T14:43:46.967Z,134.75
2019-03-18T14:46:14.787Z,135.52
2019-03-18T14:48:43.294Z,134.85
2019-03-18T14:51:10.385Z,135.88
2019-03-18T14:53:37.425Z,134.50
2019-03-18T14:56:04.586Z,135.55
2019-03-18T14:58:32.974Z,135.70
2019-03-18T15:01:01.450Z,135.80
2019-03-18T15:03:28.823Z,135.12
2019-03-18T15:05:56.609Z,135.43
2019-03-18T15:08:23.711Z,135.37
2019-03-18T15:10:50.842Z,134.82
2019-03-18T15:13:30.067Z,135.35
2019-03-18T15:15:47.667Z,136.25
2019-03-18T15:18:15.059Z,137.60
2019-03-18T15:20:42.104Z,133.87
2019-03-18T15:23:10.312Z,134.63
2019-03-18T15:25:38.013Z,136.77
2019-03-18T15:28:05.049Z,136.12
2019-03-18T15:30:32.133Z,137.60
2019-03-18T15:32:59.800Z,140.85
2019-03-18T15:35:26.891Z,138.60
2019-03-18T15:37:54.161Z,137.20
2019-03-18T15:40:21.339Z,137.00
2019-03-18T15:42:48.530Z,134.15
2019-03-18T15:45:16.263Z,134.75
2019-03-18T15:47:44.564Z,134.75
2019-03-18T15:50:13.917Z,133.55
2019-03-18T15:52:42.094Z,134.87
2019-03-18T15:55:09.443Z,134.50
2019-03-18T15:57:36.728Z,134.15
2019-03-18T16:00:05.738Z,136.65
2019-03-18T16:02:34.058Z,135.80
2019-03-18T16:05:01.094Z,134.03
2019-03-18T16:07:28.861Z,136.20
2019-03-18T16:09:56.019Z,135.03
2019-03-18T16:12:24.406Z,133.78
2019-03-18T16:14:51.866Z,134.82
2019-03-18T16:17:19.026Z,131.97
2019-03-18T16:19:46.129Z,131.40
2019-03-18T16:22:23.380Z,135.30
2019-03-18T16:24:44.121Z,134.57
2019-03-18T16:27:11.654Z,134.78
2019-03-18T16:29:38.745Z,137.40
2019-03-18T16:32:11.124Z,135.30
2019-03-18T16:34:34.985Z,135.78
2019-03-18T16:37:03.251Z,136.45
2019-03-18T16:39:30.973Z,136.07
2019-03-18T16:41:58.096Z,136.30
2019-03-18T16:44:26.961Z,138.60
2019-03-18T16:46:54.083Z,136.65
2019-03-18T16:49:21.257Z,138.85
2019-03-18T16:51:48.414Z,137.40
2019-03-18T16:54:15.852Z,135.43
2019-03-18T16:56:42.920Z,141.32
2019-03-18T16:59:10.016Z,138.07
2019-03-18T17:01:37.749Z,138.92
2019-03-18T17:04:05.009Z,135.28
2019-03-18T17:06:33.280Z,139.32
2019-03-18T17:09:00.371Z,137.88
2019-03-18T17:11:27.615Z,140.30
2019-03-18T17:13:54.666Z,133.40
2019-03-18T17:16:22.176Z,133.70
2019-03-18T17:18:49.266Z,134.25
2019-03-18T17:21:16.321Z,133.85
2019-03-18T17:23:43.452Z,131.87
2019-03-18T17:26:11.997Z,132.87
2019-03-18T17:28:39.390Z,134.22
2019-03-18T17:31:07.211Z,133.15
2019-03-18T17:33:34.399Z,132.25
2019-03-18T17:36:03.749Z,132.78
2019-03-18T17:38:30.540Z,133.52
2019-03-18T17:40:57.712Z,132.80
2019-03-18T17:43:24.855Z,133.75
2019-03-18T17:45:52.310Z,133.63
2019-03-18T17:48:19.578Z,132.27
2019-03-18T17:50:46.625Z,134.32
2019-03-18T17:53:16.597Z,134.40
2019-03-18T17:55:43.683Z,133.35
2019-03-18T17:58:10.742Z,135.07
2019-03-18T18:00:45.717Z,136.75
2019-03-18T18:03:18.918Z,135.68
2019-03-18T18:05:46.873Z,135.25
2019-03-18T18:08:14.010Z,138.05
2019-03-18T18:10:43.517Z,136.22
2019-03-18T18:13:11.302Z,133.93
2019-03-18T18:15:38.413Z,133.15
2019-03-18T18:18:05.462Z,133.05
2019-03-18T18:20:33.079Z,133.18
2019-03-18T18:23:00.307Z,133.32
2019-03-18T18:25:27.827Z,133.70
2019-03-18T18:27:55.468Z,136.47
2019-03-18T18:30:22.582Z,134.65
2019-03-18T18:32:50.045Z,135.35
2019-03-18T18:35:17.662Z,134.72
2019-03-18T18:37:44.980Z,134.60
2019-03-18T18:40:14.713Z,135.32
2019-03-18T18:42:41.991Z,136.32
2019-03-18T18:45:11.396Z,133.80
2019-03-18T18:47:39.437Z,134.85
2019-03-18T18:50:07.029Z,135.10
2019-03-18T18:52:34.451Z,135.10
2019-03-18T18:55:01.659Z,135.70
2019-03-18T18:57:28.811Z,135.65
2019-03-18T18:59:56.433Z,134.15
2019-03-18T19:02:23.539Z,133.87
2019-03-18T19:04:51.872Z,136.92
2019-03-18T19:07:19.483Z,134.10
2019-03-18T19:09:46.757Z,134.57
2019-03-18T19:12:14.028Z,135.37
2019-03-18T19:14:41.309Z,135.52
2019-03-18T19:17:10.623Z,136.30
2019-03-18T19:19:37.951Z,136.03
2019-03-18T19:22:05.061Z,135.68
2019-03-18T19:24:32.599Z,136.12
2019-03-18T19:27:00.270Z,136.62
2019-03-18T19:29:28.677Z,134.97
2019-03-18T19:31:56.053Z,135.48
2019-03-18T19:34:25.562Z,135.52
2019-03-18T19:36:53.846Z,138.12
2019-03-18T19:39:20.903Z,136.37
2019-03-18T19:41:49.193Z,136.40
2019-03-18T19:44:16.671Z,136.52
2019-03-18T19:46:44.106Z,135.57
2019-03-18T19:49:14.384Z,138.15
2019-03-18T19:51:43.849Z,136.47
2019-03-18T19:54:12.923Z,134.95
2019-03-18T19:56:40.088Z,134.72
2019-03-18T19:59:07.949Z,134.35
2019-03-18T20:01:36.799Z,134.27
2019-03-18T20:04:04.110Z,134.72
2019-03-18T20:06:31.545Z,133.57
2019-03-18T20:08:58.629Z,135.07
2019-03-18T20:11:25.732Z,133.40
2019-03-18T20:13:53.268Z,132.67
2019-03-18T20:16:20.367Z,132.93
2019-03-18T20:18:49.973Z,133.20
2019-03-18T20:21:16.720Z,132.97
2019-03-18T20:23:44.295Z,132.15
2019-03-18T20:26:11.414Z,134.25
2019-03-18T20:28:39.601Z,133.18
2019-03-18T20:31:25.317Z,134.70
2019-03-18T20:33:46.224Z,132.93
2019-03-18T20:36:13.339Z,133.18
2019-03-18T20:38:40.543Z,132.07
2019-03-18T20:41:07.980Z,131.95
2019-03-18T20:43:35.206Z,134.25
2019-03-18T20:46:02.327Z,133.72
2019-03-18T20:48:31.700Z,135.20
2019-03-18T20:50:59.019Z,133.40
2019-03-18T20:53:26.192Z,134.67
2019-03-18T20:55:53.789Z,136.50
2019-03-18T20:58:20.951Z,133.15
2019-03-18T21:00:48.214Z,133.20
2019-03-18T21:03:15.759Z,132.78
2019-03-18T21:05:42.840Z,132.87
2019-03-18T21:08:10.042Z,133.87
2019-03-18T21:10:37.243Z,132.25
2019-03-18T21:13:04.375Z,134.35
2019-03-18T21:15:31.940Z,132.63
2019-03-18T21:17:59.774Z,132.67
2019-03-18T21:20:26.897Z,132.57
2019-03-18T21:22:54.105Z,131.85
2019-03-18T21:25:21.488Z,131.97
2019-03-18T21:27:49.805Z,131.22
2019-03-18T21:30:17.390Z,131.85
2019-03-18T21:32:44.832Z,131.27
2019-03-18T21:35:13.085Z,132.57
2019-03-18T21:37:42.010Z,132.72
2019-03-18T21:40:10.607Z,132.27
2019-03-18T21:42:39.574Z,133.80
2019-03-18T21:45:08.948Z,131.22
2019-03-18T21:47:37.184Z,133.90
2019-03-18T21:50:04.810Z,132.27
2019-03-18T21:52:31.964Z,133.37
2019-03-18T21:55:00.828Z,132.80
2019-03-18T21:57:27.866Z,132.00
2019-03-18T21:59:57.442Z,134.00
2019-03-18T22:02:24.600Z,132.27
2019-03-18T22:04:53.425Z,132.57
2019-03-18T22:07:20.569Z,132.47
2019-03-18T22:09:47.727Z,131.87
2019-03-18T22:12:15.048Z,132.97
2019-03-18T22:14:42.203Z,133.15
2019-03-18T22:17:09.258Z,133.70
2019-03-18T22:19:36.569Z,133.75
2019-03-18T22:22:03.902Z,133.50
2019-03-18T22:24:30.980Z,131.85
2019-03-18T22:27:00.332Z,133.82
2019-03-18T22:29:27.447Z,131.63
2019-03-18T22:31:54.607Z,131.97
2019-03-18T22:34:22.053Z,132.20
2019-03-18T22:36:51.720Z,131.85
2019-03-18T22:39:18.791Z,132.60
2019-03-18T22:41:47.761Z,134.43
2019-03-18T22:44:18.047Z,132.37
2019-03-18T22:46:45.101Z,134.05
2019-03-18T22:49:12.181Z,134.25
2019-03-18T22:51:40.503Z,131.72
2019-03-18T22:54:08.664Z,132.70
2019-03-18T22:56:37.180Z,132.97
2019-03-18T22:59:04.304Z,133.32
2019-03-18T23:01:32.681Z,133.18
2019-03-18T23:03:59.962Z,137.82
2019-03-18T23:06:27.170Z,133.63
2019-03-18T23:08:54.230Z,132.03
2019-03-18T23:11:21.292Z,133.18
2019-03-18T23:13:49.113Z,132.78
2019-03-18T23:16:16.196Z,134.55
2019-03-18T23:18:43.279Z,159.78
2019-03-18T23:21:10.847Z,145.43
2019-03-18T23:23:37.891Z,138.68
2019-03-18T23:26:05.073Z,136.32
2019-03-18T23:28:33.473Z,136.35
2019-03-18T23:31:01.870Z,139.62
2019-03-18T23:33:28.936Z,133.15
2019-03-18T23:35:57.222Z,132.97
2019-03-18T23:38:24.273Z,131.57
2019-03-18T23:40:51.528Z,131.07
2019-03-18T23:43:18.624Z,133.05
2019-03-18T23:45:45.680Z,132.52
2019-03-18T23:48:12.751Z,132.35
2019-03-18T23:50:39.889Z,133.47
2019-03-18T23:53:06.920Z,132.50
2019-03-18T23:55:33.974Z,134.65
2019-03-18T23:58:01.120Z,135.05
